createdAt,value
2018-04-25T00:01:19.564Z,99.90
2018-04-25T00:05:52.753Z,99.90
2018-04-25T00:10:25.945Z,99.90
2018-04-25T00:14:59.102Z,99.90
2018-04-25T00:19:33.054Z,99.90
2018-04-25T00:24:06.249Z,99.90
2018-04-25T00:28:39.405Z,99.90
2018-04-25T00:33:12.585Z,99.90
2018-04-25T00:37:45.804Z,99.90
2018-04-25T00:42:18.998Z,99.90
2018-04-25T00:46:52.147Z,99.90
2018-04-25T00:51:25.333Z,99.90
2018-04-25T00:55:58.516Z,99.90
2018-04-25T01:00:31.698Z,99.90
2018-04-25T01:05:05.643Z,99.90
2018-04-25T01:09:38.883Z,99.90
2018-04-25T01:14:12.130Z,99.90
2018-04-25T01:18:45.332Z,99.90
2018-04-25T01:23:29.685Z,99.90
2018-04-25T01:28:06.467Z,99.90
2018-04-25T01:32:39.664Z,99.90
2018-04-25T01:37:27.422Z,99.90
2018-04-25T01:42:00.582Z,99.90
2018-04-25T01:46:33.782Z,99.90
2018-04-25T01:51:18.859Z,99.90
2018-04-25T01:56:03.971Z,99.90
2018-04-25T02:00:49.198Z,99.90
2018-04-25T02:05:22.430Z,99.90
2018-04-25T02:09:56.370Z,99.90
2018-04-25T02:14:29.583Z,99.90
2018-04-25T02:19:02.754Z,99.90
2018-04-25T02:23:36.733Z,99.90
2018-04-25T02:28:09.923Z,99.90
2018-04-25T02:32:43.075Z,99.90
2018-04-25T02:37:16.670Z,99.90
2018-04-25T02:41:49.855Z,99.90
2018-04-25T02:46:23.046Z,99.90
2018-04-25T02:50:56.233Z,99.90
2018-04-25T02:55:30.173Z,99.90
2018-04-25T03:00:04.839Z,99.90
2018-04-25T03:04:37.992Z,99.90
2018-04-25T03:09:11.163Z,99.90
2018-04-25T03:13:44.685Z,99.90
2018-04-25T03:18:17.886Z,99.90
2018-04-25T03:22:51.074Z,99.90
2018-04-25T03:27:24.254Z,99.90
2018-04-25T03:31:57.551Z,99.90
2018-04-25T03:36:30.759Z,99.90
2018-04-25T03:41:04.703Z,99.90
2018-04-25T03:45:37.914Z,99.90
2018-04-25T03:50:11.132Z,99.90
2018-04-25T03:54:45.251Z,99.90
2018-04-25T03:59:18.434Z,99.90
2018-04-25T04:03:52.395Z,99.90
2018-04-25T04:08:25.567Z,99.90
2018-04-25T04:12:59.562Z,99.90
2018-04-25T04:17:32.710Z,99.90
2018-04-25T04:22:05.938Z,99.90
2018-04-25T04:26:40.199Z,99.90
2018-04-25T04:31:13.350Z,99.90
2018-04-25T04:35:46.543Z,99.90
2018-04-25T04:40:20.463Z,99.90
2018-04-25T04:44:54.411Z,99.90
2018-04-25T04:49:27.679Z,99.90
2018-04-25T04:54:00.818Z,99.90
2018-04-25T04:58:34.029Z,99.90
2018-04-25T05:03:07.233Z,99.90
2018-04-25T05:07:40.419Z,99.90
2018-04-25T05:12:14.392Z,99.90
2018-04-25T05:16:47.550Z,99.90
2018-04-25T05:21:21.506Z,99.90
2018-04-25T05:25:54.693Z,99.90
2018-04-25T05:30:27.888Z,99.90
2018-04-25T05:35:01.900Z,99.90
2018-04-25T05:39:35.201Z,99.90
2018-04-25T05:44:08.424Z,99.90
2018-04-25T05:48:42.431Z,99.90
2018-04-25T05:53:15.618Z,99.90
2018-04-25T05:57:48.822Z,99.90
2018-04-25T06:02:22.141Z,99.90
2018-04-25T06:06:55.298Z,99.70
2018-04-25T06:11:28.499Z,99.10
2018-04-25T06:16:01.696Z,98.00
2018-04-25T06:20:35.674Z,96.80
2018-04-25T06:25:08.898Z,96.80
2018-04-25T06:29:42.849Z,96.40
2018-04-25T06:34:16.886Z,95.80
2018-04-25T06:38:51.250Z,95.70
2018-04-25T06:43:24.475Z,95.70
2018-04-25T06:47:57.661Z,95.40
2018-04-25T06:52:30.851Z,95.00
2018-04-25T06:57:04.136Z,94.10
2018-04-25T07:01:38.140Z,93.30
2018-04-25T07:06:11.358Z,93.30
2018-04-25T07:10:45.324Z,92.80
2018-04-25T07:15:18.596Z,92.70
2018-04-25T07:19:52.549Z,92.00
2018-04-25T07:24:25.738Z,91.90
2018-04-25T07:28:59.695Z,93.10
2018-04-25T07:33:32.915Z,93.10
2018-04-25T07:38:06.123Z,93.20
2018-04-25T07:42:39.314Z,93.70
2018-04-25T07:47:12.558Z,94.20
2018-04-25T07:51:45.759Z,94.20
2018-04-25T07:56:19.791Z,94.20
2018-04-25T08:00:52.985Z,94.10
2018-04-25T08:05:26.196Z,94.10
2018-04-25T08:09:59.358Z,93.70
2018-04-25T08:14:44.405Z,94.20
2018-04-25T08:19:29.670Z,94.00
2018-04-25T08:24:02.916Z,94.00
2018-04-25T08:28:36.945Z,92.70
2018-04-25T08:33:10.908Z,93.00
2018-04-25T08:37:44.111Z,93.00
2018-04-25T08:42:17.297Z,94.10
2018-04-25T08:46:50.493Z,94.50
2018-04-25T08:51:24.459Z,93.90
2018-04-25T08:55:57.635Z,93.90
2018-04-25T09:00:30.937Z,91.80
2018-04-25T09:05:04.911Z,90.50
2018-04-25T09:09:38.102Z,90.50
2018-04-25T09:14:11.305Z,85.50
2018-04-25T09:18:44.490Z,81.20
2018-04-25T09:23:17.682Z,84.00
2018-04-25T09:27:51.618Z,86.20
2018-04-25T09:32:24.826Z,86.20
2018-04-25T09:36:58.026Z,88.10
2018-04-25T09:41:31.233Z,87.50
2018-04-25T09:46:04.420Z,88.70
2018-04-25T09:50:38.857Z,90.60
2018-04-25T09:55:12.201Z,90.20
2018-04-25T09:59:45.385Z,91.20
2018-04-25T10:04:19.346Z,92.30
2018-04-25T10:08:52.511Z,92.30
2018-04-25T10:13:26.582Z,92.20
2018-04-25T10:17:59.778Z,92.20
2018-04-25T10:22:32.977Z,92.60
2018-04-25T10:27:06.197Z,92.80
2018-04-25T10:31:39.378Z,92.60
2018-04-25T10:36:13.065Z,91.70
2018-04-25T10:40:46.266Z,81.70
2018-04-25T10:45:20.191Z,73.50
2018-04-25T10:49:54.150Z,79.60
2018-04-25T10:54:28.169Z,79.60
2018-04-25T10:59:02.113Z,90.20
2018-04-25T11:03:35.293Z,90.20
2018-04-25T11:08:09.249Z,91.80
2018-04-25T11:12:42.453Z,91.80
2018-04-25T11:17:15.607Z,92.20
2018-04-25T11:21:48.833Z,92.90
2018-04-25T11:26:22.791Z,94.00
2018-04-25T11:30:55.973Z,94.00
2018-04-25T11:35:29.174Z,94.20
2018-04-25T11:40:03.108Z,94.50
2018-04-25T11:44:37.051Z,94.50
2018-04-25T11:49:10.293Z,94.40
2018-04-25T11:53:43.469Z,93.60
2018-04-25T11:58:16.680Z,92.20
2018-04-25T12:02:49.936Z,91.50
2018-04-25T12:07:23.050Z,90.70
2018-04-25T12:11:57.046Z,91.30
2018-04-25T12:16:30.263Z,91.30
2018-04-25T12:21:03.449Z,91.70
2018-04-25T12:25:36.671Z,92.80
2018-04-25T12:30:09.869Z,92.60
2018-04-25T12:34:43.026Z,92.60
2018-04-25T12:39:16.210Z,93.30
2018-04-25T12:43:50.157Z,93.60
2018-04-25T12:48:23.399Z,93.20
2018-04-25T12:52:56.585Z,92.90
2018-04-25T12:57:29.856Z,92.90
2018-04-25T13:02:03.045Z,93.30
2018-04-25T13:06:36.223Z,93.70
2018-04-25T13:11:09.467Z,92.00
2018-04-25T13:15:43.462Z,85.00
2018-04-25T13:20:16.667Z,84.90
2018-04-25T13:24:49.884Z,83.50
2018-04-25T13:29:23.923Z,74.70
2018-04-25T13:33:57.748Z,74.60
2018-04-25T13:38:32.507Z,69.60
2018-04-25T13:43:06.463Z,69.80
2018-04-25T13:47:39.653Z,69.50
2018-04-25T13:52:13.644Z,75.90
2018-04-25T13:56:46.850Z,75.90
2018-04-25T14:01:20.882Z,73.90
2018-04-25T14:05:54.921Z,74.40
2018-04-25T14:10:28.895Z,74.30
2018-04-25T14:15:02.087Z,74.20
2018-04-25T14:19:35.361Z,74.20
2018-04-25T14:24:09.593Z,78.10
2018-04-25T14:28:42.821Z,78.00
2018-04-25T14:33:16.108Z,81.10
2018-04-25T14:37:50.903Z,82.70
2018-04-25T14:42:24.174Z,82.60
2018-04-25T14:46:57.639Z,82.50
2018-04-25T14:51:31.198Z,83.10
2018-04-25T14:56:05.412Z,80.70
2018-04-25T15:00:39.506Z,80.30
2018-04-25T15:05:13.135Z,81.00
2018-04-25T15:09:46.326Z,79.40
2018-04-25T15:14:19.537Z,78.80
2018-04-25T15:18:52.739Z,78.50
2018-04-25T15:23:25.988Z,78.80
2018-04-25T15:27:59.982Z,78.80
2018-04-25T15:32:33.224Z,78.80
2018-04-25T15:37:07.189Z,80.80
2018-04-25T15:41:40.667Z,80.80
2018-04-25T15:46:14.239Z,82.40
2018-04-25T15:50:48.431Z,83.10
2018-04-25T15:55:21.631Z,84.50
2018-04-25T15:59:54.843Z,89.00
2018-04-25T16:04:28.141Z,90.20
2018-04-25T16:09:02.140Z,92.00
2018-04-25T16:13:35.406Z,92.00
2018-04-25T16:18:08.634Z,93.20
2018-04-25T16:22:41.867Z,94.80
2018-04-25T16:27:17.508Z,94.90
2018-04-25T16:31:51.260Z,94.70
2018-04-25T16:36:24.528Z,95.10
2018-04-25T16:40:57.722Z,95.30
2018-04-25T16:45:30.915Z,96.00
2018-04-25T16:50:04.255Z,98.50
2018-04-25T16:54:37.807Z,99.90
2018-04-25T16:59:11.310Z,99.90
2018-04-25T17:03:44.702Z,99.90
2018-04-25T17:08:18.695Z,99.90
2018-04-25T17:12:51.969Z,99.90
2018-04-25T17:17:25.999Z,99.90
2018-04-25T17:21:59.244Z,99.90
2018-04-25T17:26:40.140Z,99.90
2018-04-25T17:31:16.971Z,99.90
2018-04-25T17:35:51.002Z,99.90
2018-04-25T17:40:25.033Z,99.90
2018-04-25T17:45:00.702Z,99.90
2018-04-25T17:49:34.763Z,99.90
2018-04-25T17:54:07.924Z,99.90
2018-04-25T17:58:41.896Z,99.90
2018-04-25T18:03:15.127Z,99.90
2018-04-25T18:07:48.438Z,99.90
2018-04-25T18:12:21.676Z,99.90
2018-04-25T18:16:55.689Z,99.90
2018-04-25T18:21:28.875Z,99.90
2018-04-25T18:26:02.085Z,99.90
2018-04-25T18:30:35.290Z,99.90
2018-04-25T18:35:08.491Z,99.90
2018-04-25T18:39:41.678Z,99.90
2018-04-25T18:44:14.879Z,99.90
2018-04-25T18:48:48.269Z,99.90
2018-04-25T18:53:21.516Z,99.90
2018-04-25T18:57:54.775Z,99.90
2018-04-25T19:02:28.834Z,99.90
2018-04-25T19:07:01.997Z,99.90
2018-04-25T19:11:35.974Z,99.90
2018-04-25T19:16:09.203Z,99.90
2018-04-25T19:20:42.401Z,99.90
2018-04-25T19:25:15.740Z,99.90
2018-04-25T19:29:49.592Z,99.90
2018-04-25T19:34:23.151Z,99.90
2018-04-25T19:38:56.446Z,99.90
2018-04-25T19:43:29.912Z,99.90
2018-04-25T19:48:03.871Z,99.90
2018-04-25T19:52:39.046Z,99.90
2018-04-25T19:57:13.515Z,99.90
2018-04-25T20:01:46.720Z,99.90
2018-04-25T20:06:20.763Z,99.90
2018-04-25T20:10:54.305Z,99.90
2018-04-25T20:15:28.275Z,99.90
2018-04-25T20:20:02.383Z,99.90
2018-04-25T20:24:36.444Z,99.90
2018-04-25T20:29:09.936Z,99.90
2018-04-25T20:33:43.164Z,99.90
2018-04-25T20:38:17.129Z,99.90
2018-04-25T20:42:50.345Z,99.90
2018-04-25T20:47:23.628Z,99.90
2018-04-25T20:51:57.500Z,99.90
2018-04-25T20:56:30.708Z,99.90
2018-04-25T21:01:04.248Z,99.90
2018-04-25T21:05:37.492Z,99.90
2018-04-25T21:10:10.772Z,99.90
2018-04-25T21:14:44.753Z,99.90
2018-04-25T21:19:17.964Z,99.90
2018-04-25T21:23:51.250Z,99.90
2018-04-25T21:28:24.531Z,99.90
2018-04-25T21:32:57.742Z,99.90
2018-04-25T21:37:31.020Z,99.90
2018-04-25T21:42:04.268Z,99.90
2018-04-25T21:46:37.543Z,99.90
2018-04-25T21:51:11.581Z,99.90
2018-04-25T21:55:44.782Z,99.90
2018-04-25T22:00:18.781Z,99.90
2018-04-25T22:04:52.112Z,99.90
2018-04-25T22:09:26.088Z,99.90
2018-04-25T22:13:59.275Z,99.90
2018-04-25T22:18:32.500Z,99.90
2018-04-25T22:23:05.687Z,99.90
2018-04-25T22:27:38.882Z,99.90
2018-04-25T22:32:12.122Z,99.90
2018-04-25T22:36:45.350Z,99.90
2018-04-25T22:41:18.588Z,99.90
2018-04-25T22:45:51.739Z,99.90
2018-04-25T22:50:24.947Z,99.90
2018-04-25T22:54:58.142Z,99.90
2018-04-25T22:59:31.372Z,99.90
2018-04-25T23:04:04.822Z,99.90
2018-04-25T23:08:37.998Z,99.90
2018-04-25T23:13:11.461Z,99.90
2018-04-25T23:17:44.671Z,99.90
2018-04-25T23:22:17.974Z,99.90
2018-04-25T23:26:52.174Z,99.90
2018-04-25T23:31:25.513Z,99.90
2018-04-25T23:35:59.775Z,99.90
2018-04-25T23:40:33.139Z,99.90
2018-04-25T23:45:07.386Z,99.90
2018-04-25T23:49:41.338Z,99.90
2018-04-25T23:54:14.519Z,99.90
2018-04-25T23:58:48.475Z,99.90
